createdAt,value
2023-02-23T00:01:26.828Z,9.50
2023-02-23T00:03:57.528Z,9.50
2023-02-23T00:06:27.376Z,9.50
2023-02-23T00:08:55.534Z,9.50
2023-02-23T00:11:23.632Z,9.50
2023-02-23T00:13:52.254Z,9.50
2023-02-23T00:16:21.774Z,9.50
2023-02-23T00:18:51.615Z,9.50
2023-02-23T00:21:22.895Z,9.50
2023-02-23T00:23:53.103Z,9.50
2023-02-23T00:26:21.780Z,9.50
2023-02-23T00:28:50.945Z,9.50
2023-02-23T00:31:19.390Z,9.50
2023-02-23T00:33:47.678Z,9.50
2023-02-23T00:36:16.199Z,9.50
2023-02-23T00:38:46.000Z,9.50
2023-02-23T00:41:20.105Z,9.50
2023-02-23T00:43:54.948Z,9.50
2023-02-23T00:46:26.996Z,9.50
2023-02-23T00:48:56.332Z,9.40
2023-02-23T00:51:30.808Z,9.50
2023-02-23T00:54:00.834Z,9.50
2023-02-23T00:56:29.049Z,9.50
2023-02-23T00:58:57.204Z,9.40
2023-02-23T01:01:26.073Z,9.50
2023-02-23T01:03:54.142Z,9.40
2023-02-23T01:06:22.270Z,9.40
2023-02-23T01:08:52.364Z,9.40
2023-02-23T01:11:22.996Z,9.40
2023-02-23T01:13:53.367Z,9.50
2023-02-23T01:16:26.209Z,9.50
2023-02-23T01:18:54.326Z,9.40
2023-02-23T01:21:25.017Z,9.40
2023-02-23T01:23:53.384Z,9.40
2023-02-23T01:26:24.480Z,9.40
2023-02-23T01:28:53.511Z,9.40
2023-02-23T01:31:22.785Z,9.40
2023-02-23T01:33:55.026Z,9.40
2023-02-23T01:36:23.573Z,9.40
2023-02-23T01:38:52.054Z,9.40
2023-02-23T01:41:20.162Z,9.40
2023-02-23T01:44:01.055Z,9.40
2023-02-23T01:46:31.501Z,9.40
2023-02-23T01:48:59.811Z,9.40
2023-02-23T01:51:31.966Z,9.40
2023-02-23T01:54:05.465Z,9.40
2023-02-23T01:56:37.965Z,9.40
2023-02-23T01:59:12.163Z,9.40
2023-02-23T02:01:41.097Z,9.40
2023-02-23T02:04:10.487Z,9.40
2023-02-23T02:06:40.776Z,9.40
2023-02-23T02:09:16.539Z,9.40
2023-02-23T02:11:46.543Z,9.40
2023-02-23T02:14:21.690Z,9.40
2023-02-23T02:17:02.284Z,9.40
2023-02-23T02:20:06.693Z,9.40
2023-02-23T02:23:28.266Z,9.40
2023-02-23T02:26:04.982Z,9.40
2023-02-23T02:29:06.486Z,9.40
2023-02-23T02:32:10.966Z,9.40
2023-02-23T02:35:18.976Z,9.30
2023-02-23T02:37:57.257Z,9.40
2023-02-23T02:40:30.776Z,9.40
2023-02-23T02:43:08.486Z,9.40
2023-02-23T02:45:43.861Z,9.40
2023-02-23T02:48:19.455Z,9.40
2023-02-23T02:50:52.087Z,9.40
2023-02-23T02:53:27.641Z,9.40
2023-02-23T02:56:00.287Z,9.40
2023-02-23T02:58:28.878Z,9.40
2023-02-23T03:01:14.098Z,9.40
2023-02-23T03:04:02.381Z,9.40
2023-02-23T03:06:50.746Z,9.40
2023-02-23T03:09:50.809Z,9.40
2023-02-23T03:12:45.734Z,9.40
2023-02-23T03:15:55.358Z,9.40
2023-02-23T03:19:10.167Z,9.40
2023-02-23T03:22:01.308Z,9.40
2023-02-23T03:24:55.167Z,9.40
2023-02-23T03:27:48.720Z,9.40
2023-02-23T03:30:38.828Z,9.40
2023-02-23T03:33:31.131Z,9.40
2023-02-23T03:36:23.260Z,9.40
2023-02-23T03:39:14.920Z,9.40
2023-02-23T03:42:04.969Z,9.40
2023-02-23T03:44:53.725Z,9.40
2023-02-23T03:47:46.247Z,9.40
2023-02-23T03:50:39.584Z,9.40
2023-02-23T03:53:28.753Z,9.40
2023-02-23T03:56:16.851Z,9.40
2023-02-23T03:59:07.650Z,9.40
2023-02-23T04:01:55.212Z,9.50
2023-02-23T04:04:41.669Z,9.50
2023-02-23T04:07:28.593Z,9.50
2023-02-23T04:10:13.873Z,9.50
2023-02-23T04:13:10.634Z,9.50
2023-02-23T04:15:42.579Z,9.50
2023-02-23T04:18:15.497Z,9.50
2023-02-23T04:20:43.417Z,9.50
2023-02-23T04:23:11.278Z,9.50
2023-02-23T04:25:39.215Z,9.50
2023-02-23T04:28:07.016Z,9.50
2023-02-23T04:30:34.842Z,9.50
2023-02-23T04:33:03.992Z,9.50
2023-02-23T04:35:31.860Z,9.40
2023-02-23T04:38:00.218Z,9.50
2023-02-23T04:40:28.558Z,9.50
2023-02-23T04:42:56.612Z,9.50
2023-02-23T04:45:25.186Z,9.50
2023-02-23T04:47:53.179Z,9.50
2023-02-23T04:50:22.606Z,9.50
2023-02-23T04:52:51.202Z,9.40
2023-02-23T04:55:21.672Z,9.50
2023-02-23T04:57:49.671Z,9.50
2023-02-23T05:00:18.784Z,9.50
2023-02-23T05:02:47.725Z,9.40
2023-02-23T05:05:17.004Z,9.40
2023-02-23T05:07:46.399Z,9.40
2023-02-23T05:10:14.232Z,9.50
2023-02-23T05:12:42.054Z,9.50
2023-02-23T05:15:11.271Z,9.50
2023-02-23T05:17:41.930Z,9.50
2023-02-23T05:20:11.456Z,9.40
2023-02-23T05:22:39.616Z,9.50
2023-02-23T05:25:10.116Z,9.40
2023-02-23T05:27:38.047Z,9.50
2023-02-23T05:30:07.855Z,9.40
2023-02-23T05:32:35.840Z,9.50
2023-02-23T05:35:04.159Z,9.50
2023-02-23T05:37:32.004Z,9.50
2023-02-23T05:39:59.790Z,9.40
2023-02-23T05:42:29.115Z,9.50
2023-02-23T05:44:56.922Z,9.50
2023-02-23T05:47:24.720Z,9.50
2023-02-23T05:49:52.925Z,9.50
2023-02-23T05:52:20.768Z,9.40
2023-02-23T05:54:48.637Z,9.40
2023-02-23T05:57:16.990Z,9.40
2023-02-23T05:59:46.495Z,9.40
2023-02-23T06:02:14.427Z,9.40
2023-02-23T06:04:42.512Z,9.40
2023-02-23T06:07:10.399Z,9.40
2023-02-23T06:09:38.187Z,9.40
2023-02-23T06:12:06.443Z,9.30
2023-02-23T06:14:35.140Z,9.30
2023-02-23T06:17:04.333Z,9.30
2023-02-23T06:19:32.925Z,9.30
2023-02-23T06:22:00.984Z,9.30
2023-02-23T06:24:28.934Z,9.30
2023-02-23T06:26:56.826Z,9.30
2023-02-23T06:29:24.743Z,9.30
2023-02-23T06:31:52.748Z,9.30
2023-02-23T06:34:22.018Z,9.30
2023-02-23T06:36:49.866Z,9.30
2023-02-23T06:39:17.740Z,9.30
2023-02-23T06:44:27.361Z,9.30
2023-02-23T06:46:55.224Z,9.30
2023-02-23T06:49:24.499Z,9.30
2023-02-23T06:51:52.286Z,9.30
2023-02-23T06:54:20.102Z,9.30
2023-02-23T06:56:48.706Z,9.30
2023-02-23T06:59:16.594Z,9.30
2023-02-23T07:01:44.671Z,9.30
2023-02-23T07:04:14.869Z,9.30
2023-02-23T07:06:45.612Z,9.30
2023-02-23T07:09:13.425Z,9.30
2023-02-23T07:11:42.085Z,9.30
2023-02-23T07:14:15.303Z,9.30
2023-02-23T07:16:55.447Z,9.30
2023-02-23T07:19:23.423Z,9.30
2023-02-23T07:21:53.572Z,9.30
2023-02-23T07:24:21.864Z,9.30
2023-02-23T07:26:49.846Z,9.30
2023-02-23T07:29:17.804Z,9.30
2023-02-23T07:31:46.158Z,9.30
2023-02-23T07:34:14.050Z,9.30
2023-02-23T07:36:41.878Z,9.30
2023-02-23T07:39:11.202Z,9.30
2023-02-23T07:41:39.141Z,9.30
2023-02-23T07:44:07.273Z,9.30
2023-02-23T07:46:35.113Z,9.30
2023-02-23T07:49:03.836Z,9.40
2023-02-23T07:51:31.733Z,9.30
2023-02-23T07:54:04.591Z,9.30
2023-02-23T07:56:35.959Z,9.40
2023-02-23T07:59:03.896Z,9.40
2023-02-23T08:01:31.942Z,9.40
2023-02-23T08:03:59.958Z,9.40
2023-02-23T08:06:28.050Z,9.40
2023-02-23T08:08:55.930Z,9.40
2023-02-23T08:11:23.756Z,9.40
2023-02-23T08:13:54.005Z,9.50
2023-02-23T08:16:21.910Z,9.50
2023-02-23T08:18:49.804Z,9.50
2023-02-23T08:21:17.765Z,9.50
2023-02-23T08:23:45.744Z,9.50
2023-02-23T08:26:13.578Z,9.50
2023-02-23T08:28:41.786Z,9.50
2023-02-23T08:31:12.015Z,9.50
2023-02-23T08:33:40.034Z,9.60
2023-02-23T08:36:08.983Z,9.60
2023-02-23T08:38:37.513Z,9.60
2023-02-23T08:41:06.207Z,9.60
2023-02-23T08:43:34.205Z,9.60
2023-02-23T08:46:02.031Z,9.60
2023-02-23T08:48:31.283Z,9.60
2023-02-23T08:50:59.748Z,9.60
2023-02-23T08:53:29.609Z,9.60
2023-02-23T08:55:58.858Z,9.60
2023-02-23T08:58:26.711Z,9.70
2023-02-23T09:00:54.786Z,9.70
2023-02-23T09:03:26.116Z,9.70
2023-02-23T09:05:55.655Z,9.70
2023-02-23T09:08:23.920Z,9.70
2023-02-23T09:10:51.980Z,9.70
2023-02-23T09:13:19.944Z,9.80
2023-02-23T09:15:48.880Z,9.80
2023-02-23T09:18:17.452Z,9.80
2023-02-23T09:20:46.462Z,9.90
2023-02-23T09:23:15.685Z,9.90
2023-02-23T09:25:44.542Z,9.90
2023-02-23T09:28:14.146Z,9.90
2023-02-23T09:30:43.072Z,9.90
2023-02-23T09:33:12.161Z,9.90
2023-02-23T09:35:41.520Z,10.00
2023-02-23T09:38:10.270Z,10.00
2023-02-23T09:40:53.203Z,10.00
2023-02-23T09:43:27.585Z,10.00
2023-02-23T09:46:01.560Z,10.10
2023-02-23T09:48:30.931Z,10.10
2023-02-23T09:51:00.592Z,10.10
2023-02-23T09:53:36.030Z,10.20
2023-02-23T09:56:12.174Z,10.10
2023-02-23T09:58:40.586Z,10.20
2023-02-23T10:01:42.607Z,10.20
2023-02-23T10:04:17.856Z,10.20
2023-02-23T10:06:50.439Z,10.30
2023-02-23T10:09:27.615Z,10.40
2023-02-23T10:12:04.844Z,10.40
2023-02-23T10:14:54.381Z,10.40
2023-02-23T10:17:32.325Z,10.40
2023-02-23T10:20:08.858Z,10.50
2023-02-23T10:22:37.169Z,10.50
2023-02-23T10:25:11.288Z,10.50
2023-02-23T10:27:43.808Z,10.50
2023-02-23T10:30:20.522Z,10.60
2023-02-23T10:32:53.464Z,10.60
2023-02-23T10:35:24.471Z,10.60
2023-02-23T10:37:53.835Z,10.60
2023-02-23T10:40:24.435Z,10.70
2023-02-23T10:42:55.100Z,10.70
2023-02-23T10:45:24.889Z,10.70
2023-02-23T10:47:57.969Z,10.80
2023-02-23T10:50:28.955Z,10.80
2023-02-23T10:53:00.017Z,10.90
2023-02-23T10:55:30.291Z,10.90
2023-02-23T10:58:10.865Z,10.90
2023-02-23T11:00:40.323Z,11.00
2023-02-23T11:03:19.791Z,10.90
2023-02-23T11:05:50.576Z,11.00
2023-02-23T11:08:22.433Z,11.00
2023-02-23T11:11:02.290Z,11.00
2023-02-23T11:13:37.664Z,11.00
2023-02-23T11:16:10.021Z,11.10
2023-02-23T11:18:38.973Z,11.10
2023-02-23T11:21:18.892Z,11.20
2023-02-23T11:23:47.133Z,11.20
2023-02-23T11:26:30.893Z,11.20
2023-02-23T11:29:05.635Z,11.30
2023-02-23T11:31:36.117Z,11.30
2023-02-23T11:34:05.901Z,11.40
2023-02-23T11:36:35.976Z,11.40
2023-02-23T11:39:22.824Z,11.50
2023-02-23T11:42:14.888Z,11.50
2023-02-23T11:44:45.340Z,11.50
2023-02-23T11:47:20.501Z,11.60
2023-02-23T11:49:50.702Z,11.60
2023-02-23T11:52:21.420Z,11.50
2023-02-23T11:54:55.316Z,11.60
2023-02-23T11:57:25.919Z,11.60
2023-02-23T11:59:56.674Z,11.60
2023-02-23T12:02:26.705Z,11.60
2023-02-23T12:05:03.320Z,11.60
2023-02-23T12:07:41.292Z,11.70
2023-02-23T12:10:17.326Z,11.70
2023-02-23T12:12:52.040Z,11.70
2023-02-23T12:15:35.098Z,11.80
2023-02-23T12:18:09.385Z,11.80
2023-02-23T12:20:41.577Z,11.80
2023-02-23T12:23:13.521Z,11.80
2023-02-23T12:25:46.688Z,11.90
2023-02-23T12:28:21.249Z,11.90
2023-02-23T12:30:56.026Z,11.90
2023-02-23T12:33:30.058Z,11.90
2023-02-23T12:36:02.190Z,12.00
2023-02-23T12:38:39.227Z,12.00
2023-02-23T12:41:13.103Z,12.10
2023-02-23T12:43:51.234Z,12.10
2023-02-23T12:46:25.591Z,12.10
2023-02-23T12:49:03.147Z,12.20
2023-02-23T12:51:35.844Z,12.20
2023-02-23T12:54:05.784Z,12.20
2023-02-23T12:56:42.051Z,12.20
2023-02-23T12:59:21.879Z,12.30
2023-02-23T13:01:55.906Z,12.30
2023-02-23T13:04:38.606Z,12.30
2023-02-23T13:07:18.655Z,12.30
2023-02-23T13:09:56.545Z,12.30
2023-02-23T13:12:41.806Z,12.40
2023-02-23T13:15:19.650Z,12.40
2023-02-23T13:17:55.828Z,12.40
2023-02-23T13:20:31.192Z,12.40
2023-02-23T13:23:09.903Z,12.40
2023-02-23T13:25:47.467Z,12.40
2023-02-23T13:28:21.124Z,12.40
2023-02-23T13:30:49.067Z,12.40
2023-02-23T13:33:35.033Z,12.50
2023-02-23T13:36:07.094Z,12.50
2023-02-23T13:38:47.012Z,12.50
2023-02-23T13:41:28.953Z,12.60
2023-02-23T13:44:00.667Z,12.60
2023-02-23T13:46:40.852Z,12.60
2023-02-23T13:49:24.773Z,12.70
2023-02-23T13:51:56.843Z,12.70
2023-02-23T13:54:29.511Z,12.70
2023-02-23T13:57:00.064Z,12.70
2023-02-23T13:59:30.516Z,12.80
2023-02-23T14:02:03.369Z,12.80
2023-02-23T14:04:37.137Z,12.80
2023-02-23T14:07:16.519Z,12.80
2023-02-23T14:09:53.955Z,12.80
2023-02-23T14:12:27.542Z,12.90
2023-02-23T14:14:55.403Z,12.90
2023-02-23T14:17:56.906Z,12.90
2023-02-23T14:20:37.111Z,12.90
2023-02-23T14:23:49.397Z,12.90
2023-02-23T14:26:37.162Z,12.90
2023-02-23T14:29:28.564Z,12.80
2023-02-23T14:32:04.864Z,12.80
2023-02-23T14:34:53.479Z,12.80
2023-02-23T14:37:32.045Z,12.80
2023-02-23T14:40:06.506Z,12.90
2023-02-23T14:42:34.375Z,12.90
2023-02-23T14:45:08.660Z,12.90
2023-02-23T14:47:45.740Z,12.80
2023-02-23T14:50:19.509Z,12.80
2023-02-23T14:52:49.567Z,12.80
2023-02-23T14:55:22.592Z,12.90
2023-02-23T14:57:50.926Z,12.90
2023-02-23T15:00:23.053Z,12.90
2023-02-23T15:02:56.683Z,12.90
2023-02-23T15:05:26.506Z,12.90
2023-02-23T15:08:00.435Z,12.90
2023-02-23T15:10:34.377Z,12.80
2023-02-23T15:13:08.857Z,12.80
2023-02-23T15:15:39.266Z,12.80
2023-02-23T15:18:07.108Z,12.80
2023-02-23T15:20:38.377Z,12.80
2023-02-23T15:23:07.623Z,12.80
2023-02-23T15:25:39.192Z,12.70
2023-02-23T15:28:22.209Z,12.70
2023-02-23T15:30:51.513Z,12.70
2023-02-23T15:33:23.632Z,12.70
2023-02-23T15:35:55.225Z,12.70
2023-02-23T15:38:43.004Z,12.70
2023-02-23T15:41:18.919Z,12.70
2023-02-23T15:43:47.260Z,12.70
2023-02-23T15:46:25.167Z,12.70
2023-02-23T15:48:55.793Z,12.60
2023-02-23T15:51:35.256Z,12.60
2023-02-23T15:54:14.190Z,12.60
2023-02-23T15:56:47.572Z,12.50
2023-02-23T15:59:23.908Z,12.50
2023-02-23T16:01:54.865Z,12.50
2023-02-23T16:04:27.124Z,12.50
2023-02-23T16:06:56.953Z,12.50
2023-02-23T16:09:29.856Z,12.50
2023-02-23T16:12:02.956Z,12.50
2023-02-23T16:14:35.752Z,12.50
2023-02-23T16:17:11.670Z,12.50
2023-02-23T16:19:41.634Z,12.50
2023-02-23T16:22:19.207Z,12.40
2023-02-23T16:24:54.615Z,12.40
2023-02-23T16:27:22.489Z,12.40
2023-02-23T16:30:00.405Z,12.50
2023-02-23T16:32:36.718Z,12.40
2023-02-23T16:35:15.158Z,12.40
2023-02-23T16:37:58.551Z,12.40
2023-02-23T16:40:28.190Z,12.40
2023-02-23T16:42:59.320Z,12.40
2023-02-23T16:45:29.507Z,12.40
2023-02-23T16:48:02.058Z,12.30
2023-02-23T16:50:30.617Z,12.40
2023-02-23T16:52:58.513Z,12.40
2023-02-23T16:55:29.501Z,12.30
2023-02-23T16:58:00.060Z,12.30
2023-02-23T17:00:29.781Z,12.30
2023-02-23T17:02:58.634Z,12.30
2023-02-23T17:05:26.752Z,12.30
2023-02-23T17:07:57.480Z,12.30
2023-02-23T17:10:29.422Z,12.30
2023-02-23T17:12:58.710Z,12.20
2023-02-23T17:15:29.471Z,12.20
2023-02-23T17:17:57.716Z,12.20
2023-02-23T17:20:26.598Z,12.20
2023-02-23T17:22:55.651Z,12.20
2023-02-23T17:25:26.436Z,12.20
2023-02-23T17:27:56.197Z,12.20
2023-02-23T17:30:24.828Z,12.20
2023-02-23T17:32:54.542Z,12.10
2023-02-23T17:35:22.934Z,12.10
2023-02-23T17:37:51.093Z,12.10
2023-02-23T17:40:26.213Z,12.10
2023-02-23T17:42:55.971Z,12.10
2023-02-23T17:45:23.982Z,12.10
2023-02-23T17:47:51.841Z,12.10
2023-02-23T17:50:21.616Z,12.10
2023-02-23T17:52:50.079Z,12.10
2023-02-23T17:55:18.992Z,12.10
2023-02-23T17:57:47.478Z,12.10
2023-02-23T18:00:19.168Z,12.10
2023-02-23T18:02:47.071Z,12.10
2023-02-23T18:05:15.763Z,12.00
2023-02-23T18:07:45.973Z,12.10
2023-02-23T18:10:16.638Z,12.00
2023-02-23T18:12:44.493Z,12.00
2023-02-23T18:15:12.411Z,12.00
2023-02-23T18:17:41.553Z,12.00
2023-02-23T18:20:13.981Z,12.00
2023-02-23T18:22:41.834Z,12.00
2023-02-23T18:25:10.826Z,12.00
2023-02-23T18:27:38.631Z,11.90
2023-02-23T18:30:07.785Z,11.90
2023-02-23T18:32:35.758Z,11.90
2023-02-23T18:35:05.689Z,11.90
2023-02-23T18:37:33.495Z,11.90
2023-02-23T18:40:01.305Z,11.90
2023-02-23T18:42:29.175Z,11.90
2023-02-23T18:44:56.998Z,11.90
2023-02-23T18:47:25.592Z,11.90
2023-02-23T18:49:53.623Z,11.80
2023-02-23T18:52:22.809Z,11.80
2023-02-23T18:54:50.816Z,11.80
2023-02-23T18:57:18.722Z,11.80
2023-02-23T18:59:47.272Z,11.80
2023-02-23T19:02:15.139Z,11.80
2023-02-23T19:04:43.061Z,11.80
2023-02-23T19:07:11.008Z,11.80
2023-02-23T19:09:40.909Z,11.80
2023-02-23T19:12:09.005Z,11.80
2023-02-23T19:14:48.760Z,11.70
2023-02-23T19:17:19.502Z,11.70
2023-02-23T19:19:47.720Z,11.70
2023-02-23T19:22:15.560Z,11.70
2023-02-23T19:24:44.771Z,11.70
2023-02-23T19:27:12.611Z,11.70
2023-02-23T19:29:40.422Z,11.70
2023-02-23T19:32:08.662Z,11.70
2023-02-23T19:34:37.340Z,11.60
2023-02-23T19:37:05.191Z,11.60
2023-02-23T19:39:33.267Z,11.70
2023-02-23T19:42:02.778Z,11.60
2023-02-23T19:44:30.659Z,11.60
2023-02-23T19:46:58.665Z,11.60
2023-02-23T19:49:26.678Z,11.60
2023-02-23T19:51:54.547Z,11.60
2023-02-23T19:54:26.036Z,11.60
2023-02-23T19:56:54.519Z,11.60
2023-02-23T19:59:24.545Z,11.60
2023-02-23T20:01:52.848Z,11.60
2023-02-23T20:04:21.316Z,11.50
2023-02-23T20:06:49.168Z,11.50
2023-02-23T20:09:16.992Z,11.50
2023-02-23T20:11:44.859Z,11.50
2023-02-23T20:14:12.741Z,11.50
2023-02-23T20:16:42.027Z,11.50
2023-02-23T20:19:11.557Z,11.50
2023-02-23T20:21:39.688Z,11.40
2023-02-23T20:24:08.095Z,11.40
2023-02-23T20:26:39.227Z,11.40
2023-02-23T20:29:11.054Z,11.40
2023-02-23T20:31:42.803Z,11.40
2023-02-23T20:34:11.996Z,11.40
2023-02-23T20:36:40.198Z,11.40
2023-02-23T20:39:09.040Z,11.40
2023-02-23T20:41:36.850Z,11.30
2023-02-23T20:44:04.814Z,11.30
2023-02-23T20:46:32.656Z,11.30
2023-02-23T20:49:03.601Z,11.20
2023-02-23T20:51:31.446Z,11.20
2023-02-23T20:53:59.339Z,11.10
2023-02-23T20:56:32.648Z,11.10
2023-02-23T20:59:00.871Z,11.00
2023-02-23T21:01:29.193Z,11.00
2023-02-23T21:03:59.554Z,11.00
2023-02-23T21:06:30.811Z,11.00
2023-02-23T21:09:04.168Z,10.90
2023-02-23T21:11:33.214Z,10.90
2023-02-23T21:14:01.664Z,10.90
2023-02-23T21:16:32.268Z,10.90
2023-02-23T21:19:04.867Z,10.90
2023-02-23T21:21:39.931Z,10.80
2023-02-23T21:24:08.014Z,10.80
2023-02-23T21:26:35.913Z,10.80
2023-02-23T21:29:04.172Z,10.80
2023-02-23T21:31:32.308Z,10.70
2023-02-23T21:34:00.168Z,10.70
2023-02-23T21:36:27.981Z,10.70
2023-02-23T21:38:57.166Z,10.70
2023-02-23T21:41:25.049Z,10.70
2023-02-23T21:43:53.860Z,10.70
2023-02-23T21:46:23.037Z,10.60
2023-02-23T21:48:50.966Z,10.60
2023-02-23T21:51:19.817Z,10.60
2023-02-23T21:53:48.574Z,10.60
2023-02-23T21:56:20.308Z,10.60
2023-02-23T21:58:50.324Z,10.60
2023-02-23T22:01:22.169Z,10.60
2023-02-23T22:03:50.949Z,10.60
2023-02-23T22:06:21.116Z,10.60
2023-02-23T22:08:50.211Z,10.60
2023-02-23T22:11:24.816Z,10.60
2023-02-23T22:13:58.651Z,10.60
2023-02-23T22:16:27.822Z,10.60
2023-02-23T22:18:55.766Z,10.60
2023-02-23T22:21:23.699Z,10.50
2023-02-23T22:23:53.288Z,10.50
2023-02-23T22:26:22.697Z,10.50
2023-02-23T22:28:50.519Z,10.50
2023-02-23T22:31:18.608Z,10.50
2023-02-23T22:33:46.666Z,10.50
2023-02-23T22:36:18.163Z,10.50
2023-02-23T22:38:46.715Z,10.50
2023-02-23T22:41:14.640Z,10.40
2023-02-23T22:43:46.722Z,10.40
2023-02-23T22:46:16.238Z,10.40
2023-02-23T22:48:45.585Z,10.40
2023-02-23T22:51:14.601Z,10.30
2023-02-23T22:53:43.293Z,10.30
2023-02-23T22:56:11.301Z,10.30
2023-02-23T22:58:41.966Z,10.30
2023-02-23T23:01:12.167Z,10.20
2023-02-23T23:03:41.928Z,10.20
2023-02-23T23:06:11.690Z,10.10
2023-02-23T23:08:41.762Z,10.10
2023-02-23T23:11:12.939Z,10.10
2023-02-23T23:13:44.336Z,10.10
2023-02-23T23:16:28.894Z,10.10
2023-02-23T23:19:02.356Z,10.00
2023-02-23T23:21:32.153Z,10.00
2023-02-23T23:24:03.012Z,10.00
2023-02-23T23:26:31.768Z,10.00
2023-02-23T23:29:01.283Z,10.00
2023-02-23T23:31:32.678Z,10.00
2023-02-23T23:34:02.337Z,10.00
2023-02-23T23:36:32.084Z,10.00
2023-02-23T23:39:01.265Z,9.90
2023-02-23T23:41:36.172Z,10.00
2023-02-23T23:44:05.115Z,9.90
2023-02-23T23:46:37.573Z,9.90
2023-02-23T23:49:08.131Z,9.90
2023-02-23T23:51:39.107Z,9.90
2023-02-23T23:54:09.594Z,9.90
2023-02-23T23:56:38.212Z,9.90
2023-02-23T23:59:08.168Z,9.80
